createdAt,value
2018-12-11T00:02:20.932Z,100992.96
2018-12-11T00:04:46.969Z,100991.07
2018-12-11T00:07:12.983Z,100993.77
2018-12-11T00:09:39.021Z,100998.12
2018-12-11T00:12:05.027Z,101001.91
2018-12-11T00:14:31.070Z,100999.78
2018-12-11T00:16:57.064Z,100997.38
2018-12-11T00:19:23.008Z,100997.92
2018-12-11T00:21:49.014Z,101006.56
2018-12-11T00:24:15.057Z,101004.98
2018-12-11T00:26:41.056Z,101000.69
2018-12-11T00:29:07.000Z,101006.33
2018-12-11T00:31:32.996Z,101002.30
2018-12-11T00:33:58.940Z,101006.36
2018-12-11T00:36:24.944Z,101005.07
2018-12-11T00:38:50.876Z,101007.53
2018-12-11T00:41:16.884Z,101008.61
2018-12-11T00:43:42.849Z,101009.45
2018-12-11T00:46:08.833Z,101002.70
2018-12-11T00:48:34.876Z,101009.22
2018-12-11T00:51:00.877Z,101002.77
2018-12-11T00:53:26.840Z,101011.41
2018-12-11T00:55:52.816Z,101011.67
2018-12-11T00:58:18.745Z,101016.56
2018-12-11T01:00:44.820Z,101016.56
2018-12-11T01:03:10.788Z,101023.08
2018-12-11T01:05:36.729Z,101023.92
2018-12-11T01:08:02.739Z,101026.63
2018-12-11T01:10:28.877Z,101027.70
2018-12-11T01:12:54.887Z,101027.46
2018-12-11T01:15:21.036Z,101033.41
2018-12-11T01:17:47.031Z,101031.58
2018-12-11T01:20:13.081Z,101039.11
2018-12-11T01:22:39.177Z,101044.51
2018-12-11T01:25:05.125Z,101043.72
2018-12-11T01:27:31.117Z,101048.31
2018-12-11T01:29:57.053Z,101055.64
2018-12-11T01:32:23.060Z,101059.93
2018-12-11T01:34:49.000Z,101056.48
2018-12-11T01:37:15.005Z,101059.17
2018-12-11T01:39:40.944Z,101064.58
2018-12-11T01:42:06.956Z,101062.72
2018-12-11T01:44:33.001Z,101071.92
2018-12-11T01:46:58.998Z,101077.33
2018-12-11T01:49:25.036Z,101071.66
2018-12-11T01:51:51.049Z,101076.81
2018-12-11T01:54:17.064Z,101084.37
2018-12-11T01:56:43.016Z,101083.33
2018-12-11T01:59:09.008Z,101083.86
2018-12-11T02:01:34.952Z,101091.73
2018-12-11T02:04:00.953Z,101086.62
2018-12-11T02:06:27.036Z,101091.51
2018-12-11T02:08:53.001Z,101092.28
2018-12-11T02:11:18.974Z,101092.86
2018-12-11T02:13:44.948Z,101089.88
2018-12-11T02:16:10.984Z,101093.16
2018-12-11T02:18:36.997Z,101099.09
2018-12-11T02:21:03.054Z,101097.20
2018-12-11T02:23:29.036Z,101096.69
2018-12-11T02:25:55.076Z,101095.88
2018-12-11T02:28:21.081Z,101098.34
2018-12-11T02:30:47.132Z,101102.38
2018-12-11T02:33:13.120Z,101106.73
2018-12-11T02:35:39.070Z,101102.41
2018-12-11T02:38:05.176Z,101113.78
2018-12-11T02:40:31.213Z,101109.45
2018-12-11T02:42:57.230Z,101114.85
2018-12-11T02:45:23.264Z,101116.50
2018-12-11T02:47:49.263Z,101127.30
2018-12-11T02:50:15.419Z,101119.77
2018-12-11T02:52:41.420Z,101123.30
2018-12-11T02:55:07.448Z,101134.88
2018-12-11T02:57:33.481Z,101129.78
2018-12-11T02:59:59.585Z,101126.02
2018-12-11T03:02:25.631Z,101129.78
2018-12-11T03:04:51.633Z,101127.95
2018-12-11T03:07:17.676Z,101131.72
2018-12-11T03:09:43.678Z,101135.23
2018-12-11T03:12:09.646Z,101137.39
2018-12-11T03:14:35.724Z,101135.52
2018-12-11T03:17:01.867Z,101127.72
2018-12-11T03:19:27.984Z,101136.06
2018-12-11T03:21:54.010Z,101146.56
2018-12-11T03:24:20.120Z,101142.00
2018-12-11T03:26:46.165Z,101137.70
2018-12-11T03:29:12.278Z,101136.11
2018-12-11T03:31:38.322Z,101143.64
2018-12-11T03:34:04.325Z,101145.56
2018-12-11T03:36:30.352Z,101143.94
2018-12-11T03:38:56.365Z,101157.44
2018-12-11T03:41:22.405Z,101153.39
2018-12-11T03:43:48.414Z,101158.00
2018-12-11T03:46:14.448Z,101157.19
2018-12-11T03:48:40.461Z,101155.59
2018-12-11T03:51:06.605Z,101159.13
2018-12-11T03:53:32.696Z,101169.39
2018-12-11T03:55:58.620Z,101168.58
2018-12-11T03:58:24.568Z,101169.92
2018-12-11T04:00:50.581Z,101171.00
2018-12-11T04:03:16.714Z,101165.11
2018-12-11T04:05:42.715Z,101170.22
2018-12-11T04:08:08.988Z,101173.98
2018-12-11T04:10:34.977Z,101171.86
2018-12-11T04:13:01.112Z,101173.75
2018-12-11T04:15:27.120Z,101176.98
2018-12-11T04:17:53.157Z,101169.99
2018-12-11T04:20:19.164Z,101176.73
2018-12-11T04:22:45.217Z,101181.33
2018-12-11T04:25:11.204Z,101177.03
2018-12-11T04:27:37.156Z,101185.66
2018-12-11T04:30:03.910Z,101187.02
2018-12-11T04:32:29.913Z,101193.77
2018-12-11T04:34:55.921Z,101188.12
2018-12-11T04:37:21.956Z,101190.01
2018-12-11T04:39:48.036Z,101194.59
2018-12-11T04:42:14.050Z,101197.05
2018-12-11T04:44:40.113Z,101196.80
2018-12-11T04:47:06.156Z,101200.84
2018-12-11T04:49:32.148Z,101209.48
2018-12-11T04:51:58.136Z,101206.78
2018-12-11T04:54:24.137Z,101212.47
2018-12-11T04:56:50.116Z,101211.12
2018-12-11T04:59:16.060Z,101215.17
2018-12-11T05:01:42.130Z,101213.55
2018-12-11T05:04:08.213Z,101218.95
2018-12-11T05:06:34.204Z,101224.62
2018-12-11T05:09:00.160Z,101235.13
2018-12-11T05:11:26.116Z,101227.04
2018-12-11T05:13:52.097Z,101231.67
2018-12-11T05:16:18.101Z,101234.65
2018-12-11T05:18:44.152Z,101233.59
2018-12-11T05:21:10.152Z,101235.99
2018-12-11T05:23:36.183Z,101237.34
2018-12-11T05:26:02.209Z,101233.02
2018-12-11T05:28:28.240Z,101230.61
2018-12-11T05:30:54.237Z,101240.63
2018-12-11T05:33:20.284Z,101241.41
2018-12-11T05:35:46.298Z,101234.95
2018-12-11T05:38:12.331Z,101239.00
2018-12-11T05:40:38.328Z,101244.15
2018-12-11T05:43:04.372Z,101240.34
2018-12-11T05:45:30.372Z,101247.63
2018-12-11T05:47:56.312Z,101257.08
2018-12-11T05:50:22.321Z,101244.69
2018-12-11T05:52:48.372Z,101248.73
2018-12-11T05:55:14.360Z,101244.15
2018-12-11T05:57:40.282Z,101256.83
2018-12-11T06:00:06.981Z,101251.43
2018-12-11T06:02:32.945Z,101260.59
2018-12-11T06:04:59.096Z,101250.61
2018-12-11T06:07:25.092Z,101259.52
2018-12-11T06:09:51.132Z,101264.39
2018-12-11T06:12:17.066Z,101265.17
2018-12-11T06:14:43.184Z,101261.41
2018-12-11T06:17:09.287Z,101256.58
2018-12-11T06:19:35.332Z,101262.76
2018-12-11T06:22:01.331Z,101265.21
2018-12-11T06:24:27.273Z,101259.81
2018-12-11T06:26:53.277Z,101265.21
2018-12-11T06:29:19.332Z,101262.27
2018-12-11T06:31:45.325Z,101272.49
2018-12-11T06:34:11.365Z,101264.16
2018-12-11T06:36:37.369Z,101265.59
2018-12-11T06:39:04.485Z,101267.95
2018-12-11T06:41:30.437Z,101279.53
2018-12-11T06:43:56.488Z,101283.33
2018-12-11T06:46:22.493Z,101284.67
2018-12-11T06:48:48.524Z,101293.84
2018-12-11T06:51:14.586Z,101294.66
2018-12-11T06:53:40.653Z,101296.54
2018-12-11T06:56:06.593Z,101297.64
2018-12-11T06:58:32.600Z,101307.09
2018-12-11T07:00:58.648Z,101303.58
2018-12-11T07:03:24.656Z,101312.48
2018-12-11T07:05:50.685Z,101322.74
2018-12-11T07:08:16.684Z,101320.33
2018-12-11T07:10:42.636Z,101328.42
2018-12-11T07:13:08.688Z,101324.91
2018-12-11T07:15:34.768Z,101323.56
2018-12-11T07:18:00.792Z,101327.08
2018-12-11T07:20:26.824Z,101335.17
2018-12-11T07:22:52.816Z,101332.20
2018-12-11T07:25:18.769Z,101331.95
2018-12-11T07:27:44.772Z,101340.29
2018-12-11T07:30:10.843Z,101341.64
2018-12-11T07:32:36.812Z,101340.04
2018-12-11T07:35:02.764Z,101338.69
2018-12-11T07:37:28.758Z,101340.04
2018-12-11T07:39:54.697Z,101343.27
2018-12-11T07:42:20.705Z,101346.54
2018-12-11T07:44:46.843Z,101349.23
2018-12-11T07:47:12.848Z,101350.02
2018-12-11T07:49:38.768Z,101355.41
2018-12-11T07:52:04.708Z,101360.03
2018-12-11T07:54:30.716Z,101358.68
2018-12-11T07:56:56.752Z,101366.49
2018-12-11T07:59:22.761Z,101369.47
2018-12-11T08:01:48.796Z,101367.84
2018-12-11T08:04:14.808Z,101384.31
2018-12-11T08:06:40.845Z,101382.69
2018-12-11T08:09:06.858Z,101393.75
2018-12-11T08:11:32.908Z,101390.24
2018-12-11T08:13:58.896Z,101403.73
2018-12-11T08:16:25.044Z,101409.13
2018-12-11T08:18:51.061Z,101410.77
2018-12-11T08:21:17.085Z,101420.17
2018-12-11T08:23:43.089Z,101419.11
2018-12-11T08:26:09.052Z,101423.44
2018-12-11T08:28:36.081Z,101423.97
2018-12-11T08:31:02.199Z,101432.34
2018-12-11T08:33:28.208Z,101430.44
2018-12-11T08:35:54.248Z,101433.95
2018-12-11T08:38:20.253Z,101436.92
2018-12-11T08:40:46.297Z,101427.20
2018-12-11T08:43:12.301Z,101425.81
2018-12-11T08:45:38.341Z,101431.41
2018-12-11T08:48:04.361Z,101431.90
2018-12-11T08:50:30.377Z,101434.27
2018-12-11T08:52:56.421Z,101444.17
2018-12-11T08:55:22.413Z,101445.72
2018-12-11T08:57:48.460Z,101457.28
2018-12-11T09:00:14.456Z,101458.83
2018-12-11T09:02:40.470Z,101458.98
2018-12-11T09:05:06.504Z,101461.86
2018-12-11T09:07:32.444Z,101466.34
2018-12-11T09:09:58.452Z,101462.80
2018-12-11T09:12:24.514Z,101455.45
2018-12-11T09:14:50.502Z,101461.88
2018-12-11T09:17:16.537Z,101466.45
2018-12-11T09:19:42.537Z,101470.21
2018-12-11T09:22:08.500Z,101473.64
2018-12-11T09:24:34.486Z,101467.70
2018-12-11T09:27:00.528Z,101468.22
2018-12-11T09:29:26.539Z,101463.88
2018-12-11T09:31:52.580Z,101465.76
2018-12-11T09:34:18.577Z,101473.05
2018-12-11T09:36:44.725Z,101467.16
2018-12-11T09:39:10.729Z,101454.42
2018-12-11T09:41:36.764Z,101478.57
2018-12-11T09:44:02.772Z,101477.41
2018-12-11T09:46:28.812Z,101475.22
2018-12-11T09:48:54.838Z,101487.62
2018-12-11T09:51:20.844Z,101479.45
2018-12-11T09:53:46.880Z,101485.91
2018-12-11T09:56:12.881Z,101483.97
2018-12-11T09:58:38.826Z,101490.72
2018-12-11T10:01:04.829Z,101494.72
2018-12-11T10:03:30.892Z,101496.88
2018-12-11T10:05:56.880Z,101494.93
2018-12-11T10:08:22.928Z,101495.20
2018-12-11T10:10:48.921Z,101498.63
2018-12-11T10:13:14.949Z,101504.27
2018-12-11T10:15:40.995Z,101500.95
2018-12-11T10:18:07.088Z,101499.09
2018-12-11T10:20:33.044Z,101491.77
2018-12-11T10:22:59.040Z,101496.32
2018-12-11T10:25:25.176Z,101492.47
2018-12-11T10:27:51.188Z,101498.09
2018-12-11T10:30:17.233Z,101500.29
2018-12-11T10:32:43.220Z,101506.70
2018-12-11T10:35:09.196Z,101498.59
2018-12-11T10:37:35.180Z,101508.34
2018-12-11T10:40:01.235Z,101513.75
2018-12-11T10:42:27.212Z,101511.63
2018-12-11T10:44:53.193Z,101516.16
2018-12-11T10:47:19.169Z,101515.59
2018-12-11T10:49:45.228Z,101519.11
2018-12-11T10:52:11.218Z,101520.39
2018-12-11T10:54:37.332Z,101520.37
2018-12-11T10:57:03.276Z,101206.24
2018-12-11T10:59:29.273Z,101517.09
2018-12-11T11:01:55.229Z,101521.15
2018-12-11T11:04:21.252Z,101527.83
2018-12-11T11:06:47.264Z,101524.55
2018-12-11T11:09:13.268Z,101524.25
2018-12-11T11:11:39.308Z,101535.89
2018-12-11T11:14:05.316Z,101528.36
2018-12-11T11:16:31.452Z,101538.16
2018-12-11T11:18:57.456Z,101533.33
2018-12-11T11:21:23.936Z,101537.91
2018-12-11T11:23:50.197Z,101532.81
2018-12-11T11:26:16.449Z,101536.62
2018-12-11T11:28:42.733Z,101530.70
2018-12-11T11:31:09.044Z,101533.16
2018-12-11T11:33:35.161Z,101538.86
2018-12-11T11:36:01.834Z,101534.52
2018-12-11T11:38:28.104Z,101536.38
2018-12-11T11:40:54.514Z,101532.32
2018-12-11T11:43:20.975Z,101543.73
2018-12-11T11:45:47.255Z,101542.09
2018-12-11T11:48:13.648Z,101542.56
2018-12-11T11:50:39.830Z,101543.91
2018-12-11T11:53:05.976Z,101539.50
2018-12-11T11:55:32.325Z,101542.05
2018-12-11T11:57:58.733Z,101548.05
2018-12-11T12:00:25.151Z,101553.77
2018-12-11T12:02:51.297Z,101546.76
2018-12-11T12:05:17.620Z,101551.63
2018-12-11T12:07:43.589Z,101549.17
2018-12-11T12:10:09.604Z,101557.05
2018-12-11T12:12:36.872Z,101560.34
2018-12-11T12:15:03.403Z,101562.75
2018-12-11T12:17:29.409Z,101564.64
2018-12-11T12:19:55.408Z,101560.05
2018-12-11T12:22:21.430Z,101562.75
2018-12-11T12:24:47.658Z,101566.53
2018-12-11T12:27:13.601Z,101565.23
2018-12-11T12:29:39.600Z,101572.53
2018-12-11T12:32:05.544Z,101567.95
2018-12-11T12:34:31.544Z,101572.36
2018-12-11T12:36:57.486Z,101572.36
2018-12-11T12:39:23.491Z,101572.66
2018-12-11T12:41:49.616Z,101582.72
2018-12-11T12:44:15.564Z,101587.89
2018-12-11T12:46:41.569Z,101584.41
2018-12-11T12:49:07.601Z,101589.30
2018-12-11T12:51:33.604Z,101584.97
2018-12-11T12:53:59.544Z,101593.36
2018-12-11T12:56:25.553Z,101590.11
2018-12-11T12:58:51.593Z,101585.78
2018-12-11T13:01:17.601Z,101584.42
2018-12-11T13:03:43.636Z,101591.47
2018-12-11T13:06:09.684Z,101592.25
2018-12-11T13:08:35.785Z,101600.94
2018-12-11T13:11:01.797Z,101595.48
2018-12-11T13:13:27.758Z,101603.84
2018-12-11T13:15:53.838Z,101608.17
2018-12-11T13:18:19.880Z,101610.88
2018-12-11T13:20:45.877Z,101604.91
2018-12-11T13:23:11.820Z,101608.12
2018-12-11T13:25:37.824Z,101608.12
2018-12-11T13:28:03.872Z,101615.44
2018-12-11T13:30:29.868Z,101616.30
2018-12-11T13:32:55.809Z,101625.48
2018-12-11T13:35:21.809Z,101620.64
2018-12-11T13:37:47.752Z,101624.99
2018-12-11T13:40:13.856Z,101629.87
2018-12-11T13:42:39.773Z,101627.75
2018-12-11T13:45:05.816Z,101625.94
2018-12-11T13:47:31.820Z,101631.81
2018-12-11T13:49:57.764Z,101638.66
2018-12-11T13:52:23.788Z,101632.72
2018-12-11T13:54:49.808Z,101640.02
2018-12-11T13:57:15.812Z,101645.30
2018-12-11T13:59:41.876Z,101643.92
2018-12-11T14:02:07.857Z,101651.95
2018-12-11T14:04:33.808Z,101650.59
2018-12-11T14:06:59.804Z,101657.02
2018-12-11T14:09:25.741Z,101661.08
2018-12-11T14:11:51.736Z,101655.07
2018-12-11T14:14:17.796Z,101659.66
2018-12-11T14:16:43.796Z,101669.95
2018-12-11T14:19:09.840Z,101668.14
2018-12-11T14:21:35.844Z,101674.11
2018-12-11T14:24:01.908Z,101672.08
2018-12-11T14:26:27.889Z,101676.02
2018-12-11T14:28:53.916Z,101680.95
2018-12-11T14:31:19.950Z,101681.00
2018-12-11T14:33:45.960Z,101684.91
2018-12-11T14:36:11.996Z,101692.06
2018-12-11T14:38:38.004Z,101690.29
2018-12-11T14:41:04.041Z,101691.49
2018-12-11T14:43:30.044Z,101690.83
2018-12-11T14:45:55.985Z,101692.08
2018-12-11T14:48:21.985Z,101697.91
2018-12-11T14:50:47.936Z,101702.44
2018-12-11T14:53:13.932Z,101707.48
2018-12-11T14:55:39.900Z,101708.45
2018-12-11T14:58:05.901Z,101708.37
2018-12-11T15:00:31.900Z,101701.81
2018-12-11T15:02:57.941Z,101703.41
2018-12-11T15:05:23.945Z,101708.50
2018-12-11T15:07:49.884Z,101708.98
2018-12-11T15:10:15.949Z,101709.77
2018-12-11T15:12:41.929Z,101708.45
2018-12-11T15:15:08.475Z,101706.72
2018-12-11T15:17:34.492Z,101709.13
2018-12-11T15:20:00.492Z,101712.83
2018-12-11T15:22:26.431Z,101713.06
2018-12-11T15:24:52.436Z,101722.23
2018-12-11T15:27:18.382Z,101715.37
2018-12-11T15:29:44.485Z,101714.23
2018-12-11T15:32:10.525Z,101709.95
2018-12-11T15:34:36.530Z,101712.30
2018-12-11T15:37:02.552Z,101716.06
2018-12-11T15:39:28.592Z,101719.59
2018-12-11T15:41:54.596Z,101714.31
2018-12-11T15:44:20.542Z,101718.32
2018-12-11T15:46:46.545Z,101717.18
2018-12-11T15:49:12.595Z,101717.13
2018-12-11T15:51:38.692Z,101720.11
2018-12-11T15:54:04.732Z,101731.20
2018-12-11T15:56:30.737Z,101728.76
2018-12-11T15:58:56.672Z,101730.60
2018-12-11T16:01:22.685Z,101731.11
2018-12-11T16:03:48.721Z,101730.00
2018-12-11T16:06:14.732Z,101734.94
2018-12-11T16:08:41.584Z,101732.91
2018-12-11T16:11:07.605Z,101737.38
2018-12-11T16:13:33.664Z,101741.97
2018-12-11T16:15:59.636Z,101734.07
2018-12-11T16:18:25.680Z,101739.25
2018-12-11T16:20:51.697Z,101743.27
2018-12-11T16:23:17.836Z,101739.77
2018-12-11T16:25:43.828Z,101738.11
2018-12-11T16:28:09.773Z,101741.67
2018-12-11T16:30:35.781Z,101748.97
2018-12-11T16:33:01.828Z,101747.52
2018-12-11T16:35:27.821Z,101751.53
2018-12-11T16:37:53.747Z,101759.36
2018-12-11T16:40:19.780Z,101757.33
2018-12-11T16:42:45.789Z,101761.48
2018-12-11T16:45:11.829Z,101763.53
2018-12-11T16:47:37.832Z,101758.03
2018-12-11T16:50:03.901Z,101754.17
2018-12-11T16:52:29.876Z,101759.27
2018-12-11T16:54:55.824Z,101759.76
2018-12-11T16:57:21.824Z,101758.97
2018-12-11T16:59:47.868Z,101764.70
2018-12-11T17:02:13.869Z,101769.17
2018-12-11T17:04:39.808Z,101765.31
2018-12-11T17:07:05.820Z,101772.84
2018-12-11T17:09:31.860Z,101774.46
2018-12-11T17:11:57.902Z,101784.61
2018-12-11T17:14:23.900Z,101791.39
2018-12-11T17:16:49.906Z,101798.11
2018-12-11T17:19:15.960Z,101798.47
2018-12-11T17:21:46.966Z,101797.73
2018-12-11T17:24:09.941Z,101801.81
2018-12-11T17:26:35.940Z,101801.05
2018-12-11T17:29:01.888Z,101804.52
2018-12-11T17:31:27.885Z,101807.23
2018-12-11T17:33:53.841Z,101810.23
2018-12-11T17:36:19.937Z,101815.38
2018-12-11T17:38:45.953Z,101821.08
2018-12-11T17:41:12.005Z,101821.32
2018-12-11T17:43:38.062Z,101795.77
2018-12-11T17:46:04.061Z,101825.61
2018-12-11T17:48:30.049Z,101831.84
2018-12-11T17:50:55.993Z,101837.90
2018-12-11T17:53:21.989Z,101836.86
2018-12-11T17:55:47.933Z,101844.00
2018-12-11T17:58:13.932Z,101839.98
2018-12-11T18:00:39.876Z,101851.91
2018-12-11T18:03:05.884Z,101853.56
2018-12-11T18:05:31.920Z,101852.51
2018-12-11T18:07:57.924Z,101858.77
2018-12-11T18:10:23.869Z,101866.91
2018-12-11T18:12:49.872Z,101863.13
2018-12-11T18:15:15.916Z,101863.43
2018-12-11T18:17:41.912Z,101865.90
2018-12-11T18:20:07.878Z,101872.41
2018-12-11T18:22:33.956Z,101872.70
2018-12-11T18:24:59.901Z,101872.97
2018-12-11T18:27:25.905Z,101875.64
2018-12-11T18:29:51.863Z,101875.19
2018-12-11T18:32:17.851Z,101870.95
2018-12-11T18:34:43.876Z,101871.77
2018-12-11T18:37:09.946Z,101873.95
2018-12-11T18:39:35.921Z,101870.13
2018-12-11T18:42:01.972Z,101873.95
2018-12-11T18:44:28.065Z,101873.41
2018-12-11T18:46:54.008Z,101869.06
2018-12-11T18:49:20.017Z,101876.37
2018-12-11T18:51:46.056Z,101878.84
2018-12-11T18:54:12.060Z,101875.25
2018-12-11T18:56:38.096Z,101878.94
2018-12-11T18:59:04.100Z,101879.16
2018-12-11T19:01:30.249Z,101882.34
2018-12-11T19:03:56.275Z,101894.53
2018-12-11T19:06:22.292Z,101860.27
2018-12-11T19:08:48.297Z,101894.42
2018-12-11T19:11:14.346Z,101900.83
2018-12-11T19:13:40.291Z,101897.70
2018-12-11T19:16:06.289Z,101897.84
2018-12-11T19:18:32.305Z,101900.39
2018-12-11T19:20:58.333Z,101905.27
2018-12-11T19:23:57.768Z,101907.48
2018-12-11T19:26:23.753Z,101914.05
2018-12-11T19:28:49.767Z,101915.69
2018-12-11T19:31:15.917Z,101920.10
2018-12-11T19:33:41.908Z,101919.31
2018-12-11T19:36:07.861Z,101925.55
2018-12-11T19:38:33.854Z,101932.63
2018-12-11T19:40:59.983Z,101934.89
2018-12-11T19:43:26.038Z,101935.45
2018-12-11T19:45:52.324Z,101934.94
2018-12-11T19:48:18.491Z,101940.91
2018-12-11T19:50:44.502Z,101937.44
2018-12-11T19:53:10.594Z,101936.42
2018-12-11T19:55:36.645Z,101939.39
2018-12-11T19:58:02.710Z,101948.86
2018-12-11T20:00:28.769Z,101942.94
2018-12-11T20:02:54.822Z,101938.89
2018-12-11T20:05:20.917Z,101944.05
2018-12-11T20:07:47.080Z,101947.58
2018-12-11T20:10:13.165Z,101953.36
2018-12-11T20:12:39.343Z,101941.56
2018-12-11T20:15:05.460Z,101946.27
2018-12-11T20:17:31.667Z,101940.50
2018-12-11T20:19:57.768Z,101944.77
2018-12-11T20:22:23.796Z,101947.11
2018-12-11T20:24:49.910Z,101939.19
2018-12-11T20:27:15.938Z,101949.36
2018-12-11T20:29:41.963Z,101950.36
2018-12-11T20:32:07.962Z,101959.79
2018-12-11T20:34:33.978Z,101963.77
2018-12-11T20:36:59.958Z,101964.78
2018-12-11T20:39:26.016Z,101959.02
2018-12-11T20:41:52.025Z,101967.39
2018-12-11T20:44:18.147Z,101966.08
2018-12-11T20:46:44.179Z,101969.33
2018-12-11T20:49:10.215Z,101962.55
2018-12-11T20:51:36.188Z,101964.19
2018-12-11T20:54:02.232Z,101963.08
2018-12-11T20:56:28.232Z,101966.04
2018-12-11T20:58:54.449Z,101967.38
2018-12-11T21:01:20.368Z,101967.09
2018-12-11T21:03:46.308Z,101974.12
2018-12-11T21:06:12.320Z,101975.71
2018-12-11T21:08:38.589Z,101982.48
2018-12-11T21:11:04.565Z,101991.96
2018-12-11T21:13:30.609Z,101990.61
2018-12-11T21:15:57.638Z,101989.25
2018-12-11T21:18:23.685Z,101991.39
2018-12-11T21:20:49.693Z,101995.17
2018-12-11T21:23:15.728Z,102003.87
2018-12-11T21:25:41.732Z,101996.27
2018-12-11T21:28:07.797Z,101995.73
2018-12-11T21:30:33.780Z,102000.88
2018-12-11T21:32:59.805Z,102003.02
2018-12-11T21:35:25.851Z,102005.72
2018-12-11T21:37:51.841Z,102003.02
2018-12-11T21:40:17.804Z,101997.87
2018-12-11T21:42:43.790Z,101999.77
2018-12-11T21:45:09.834Z,102005.46
2018-12-11T21:47:35.833Z,102010.88
2018-12-11T21:50:02.005Z,102009.53
2018-12-11T21:52:28.088Z,102006.54
2018-12-11T21:54:54.132Z,102013.59
2018-12-11T21:57:20.132Z,102013.31
2018-12-11T21:59:46.168Z,102008.44
2018-12-11T22:02:12.182Z,102009.53
2018-12-11T22:04:38.216Z,102012.23
2018-12-11T22:07:04.221Z,102014.95
2018-12-11T22:09:30.354Z,102016.30
2018-12-11T22:11:56.393Z,102018.20
2018-12-11T22:14:22.332Z,102023.08
2018-12-11T22:16:48.347Z,102021.73
2018-12-11T22:19:14.337Z,102017.09
2018-12-11T22:21:40.280Z,102026.05
2018-12-11T22:24:06.284Z,102023.33
2018-12-11T22:26:32.320Z,102028.75
2018-12-11T22:28:58.320Z,102037.13
2018-12-11T22:31:24.276Z,102043.66
2018-12-11T22:33:50.273Z,102040.41
2018-12-11T22:36:16.292Z,102034.17
2018-12-11T22:38:42.227Z,102033.64
2018-12-11T22:41:08.241Z,102038.23
2018-12-11T22:43:34.177Z,102034.17
2018-12-11T22:46:00.184Z,102034.42
2018-12-11T22:48:26.221Z,102034.42
2018-12-11T22:50:52.333Z,102039.30
2018-12-11T22:53:18.373Z,102039.84
2018-12-11T22:55:44.369Z,102044.19
2018-12-11T22:58:10.322Z,102036.30
2018-12-11T23:00:36.336Z,102041.97
2018-12-11T23:03:02.383Z,102044.44
2018-12-11T23:05:28.380Z,102044.69
2018-12-11T23:07:54.409Z,102051.75
2018-12-11T23:10:20.404Z,102050.92
2018-12-11T23:12:46.360Z,102054.45
2018-12-11T23:15:12.352Z,102052.81
2018-12-11T23:17:38.280Z,102057.41
2018-12-11T23:20:04.462Z,102060.41
2018-12-11T23:22:30.525Z,102065.83
2018-12-11T23:24:56.460Z,102067.43
2018-12-11T23:27:22.477Z,102067.96
2018-12-11T23:29:48.517Z,102068.25
2018-12-11T23:32:14.512Z,102071.50
2018-12-11T23:34:40.453Z,102068.54
2018-12-11T23:37:06.468Z,102075.03
2018-12-11T23:39:32.609Z,102075.03
2018-12-11T23:41:58.605Z,102073.92
2018-12-11T23:44:24.552Z,102075.81
2018-12-11T23:46:50.548Z,102073.92
2018-12-11T23:49:16.488Z,102075.28
2018-12-11T23:51:42.501Z,102076.09
2018-12-11T23:54:08.548Z,102075.53
2018-12-11T23:56:34.540Z,102075.28
2018-12-11T23:59:00.581Z,102081.77
